Time;durP1;ratioP1;P1;durP2;ratioP2;P2;SDS_P1;SDS_P2;PMS_P1;PMS_P2;Temp;Humidity;BMP_temperature;BMP_pressure;BME280_temperature;BME280_humidity;BME280_pressure;Samples;Min_cycle;Max_cycle;Signal;HPM_P1;HPM_P2
2024/03/04 00:01:56;;;;;;;42.53;18.37;;;8.20;99.90;;;;;;4973707;28;20030;-50
2024/03/04 00:04:22;;;;;;;40.57;17.83;;;8.20;99.90;;;;;;4974051;28;20137;-53
2024/03/04 00:06:48;;;;;;;43.30;18.50;;;8.20;99.90;;;;;;4973851;28;20023;-52
2024/03/04 00:09:15;;;;;;;38.37;17.70;;;8.30;99.90;;;;;;4973805;28;20480;-55
2024/03/04 00:11:40;;;;;;;42.03;18.13;;;8.30;99.90;;;;;;4973693;28;20090;-55
2024/03/04 00:14:06;;;;;;;43.53;19.17;;;8.40;99.90;;;;;;4973701;28;20034;-55
2024/03/04 00:16:32;;;;;;;51.47;20.63;;;8.40;99.90;;;;;;4973516;28;20444;-53
2024/03/04 00:18:57;;;;;;;40.33;17.43;;;8.40;99.90;;;;;;4973586;28;20038;-55
2024/03/04 00:21:23;;;;;;;43.17;18.83;;;8.40;99.90;;;;;;4973376;28;20031;-55
2024/03/04 00:23:49;;;;;;;44.37;18.27;;;8.50;99.90;;;;;;4972403;28;20039;-56
2024/03/04 00:26:15;;;;;;;39.87;17.43;;;8.60;99.90;;;;;;4973518;28;20027;-56
2024/03/04 00:28:41;;;;;;;46.77;17.77;;;8.60;99.90;;;;;;4973109;28;20070;-53
2024/03/04 00:31:07;;;;;;;45.73;18.37;;;8.60;99.90;;;;;;4973105;28;20062;-53
2024/03/04 00:33:32;;;;;;;42.17;18.23;;;8.60;99.90;;;;;;4973416;28;20067;-54
2024/03/04 00:35:58;;;;;;;43.50;18.37;;;8.70;99.90;;;;;;4973265;28;20038;-53
2024/03/04 00:38:23;;;;;;;45.43;19.03;;;8.70;99.90;;;;;;4973270;28;20089;-56
2024/03/04 00:40:49;;;;;;;43.63;18.70;;;8.70;99.90;;;;;;4973287;28;20038;-55
2024/03/04 00:43:15;;;;;;;47.70;20.10;;;8.70;99.90;;;;;;4972009;28;20030;-56
2024/03/04 00:45:41;;;;;;;44.90;18.33;;;8.70;99.90;;;;;;4972943;28;20045;-56
2024/03/04 00:48:07;;;;;;;46.13;18.70;;;8.60;99.90;;;;;;4973308;28;20062;-55
2024/03/04 00:50:33;;;;;;;47.00;18.83;;;8.70;99.90;;;;;;4973057;28;20117;-56
2024/03/04 00:52:58;;;;;;;42.77;17.80;;;8.70;99.90;;;;;;4972965;28;20039;-53
2024/03/04 00:55:25;;;;;;;44.43;18.77;;;8.70;99.90;;;;;;4973058;28;20046;-54
2024/03/04 00:57:51;;;;;;;40.47;18.57;;;8.70;99.90;;;;;;4973127;28;20031;-55
2024/03/04 01:00:17;;;;;;;44.50;18.70;;;8.70;99.90;;;;;;4972770;28;20045;-52
2024/03/04 01:02:44;;;;;;;44.53;18.53;;;8.70;99.90;;;;;;4972894;28;20535;-55
2024/03/04 01:05:11;;;;;;;55.73;20.47;;;8.80;99.90;;;;;;4973018;28;20436;-55
2024/03/04 01:07:37;;;;;;;44.13;18.60;;;8.80;99.90;;;;;;4973051;28;20496;-51
2024/03/04 01:10:04;;;;;;;44.67;19.33;;;8.80;99.90;;;;;;4972815;28;20038;-56
2024/03/04 01:12:30;;;;;;;43.23;18.83;;;8.70;99.90;;;;;;4973414;28;20388;-55
2024/03/04 01:14:55;;;;;;;44.30;18.10;;;8.70;99.90;;;;;;4972676;28;20031;-52
2024/03/04 01:17:21;;;;;;;41.57;18.00;;;8.70;99.90;;;;;;4971689;28;20030;-56
2024/03/04 01:19:47;;;;;;;46.37;18.90;;;8.80;99.90;;;;;;4972777;28;20451;-53
2024/03/04 01:22:16;;;;;;;46.47;17.90;;;8.90;99.90;;;;;;4972771;28;20027;-53
2024/03/04 01:24:43;;;;;;;45.72;18.25;;;8.90;99.90;;;;;;4972834;28;20019;-54
2024/03/04 01:27:10;;;;;;;39.27;16.97;;;8.80;99.90;;;;;;4972881;28;20035;-52
2024/03/04 01:29:36;;;;;;;38.27;17.53;;;8.80;99.90;;;;;;4972692;28;20034;-51
2024/03/04 01:32:02;;;;;;;42.90;18.13;;;8.80;99.90;;;;;;4972735;28;20030;-53
2024/03/04 01:34:29;;;;;;;38.47;17.30;;;8.80;99.90;;;;;;4972704;28;20089;-53
2024/03/04 01:36:55;;;;;;;41.63;18.20;;;8.80;99.90;;;;;;4972776;28;20045;-54
2024/03/04 01:39:21;;;;;;;46.73;18.43;;;8.80;99.90;;;;;;4972623;28;20038;-52
2024/03/04 01:41:47;;;;;;;61.80;19.10;;;8.80;99.90;;;;;;4975935;28;20027;-54
2024/03/04 01:44:13;;;;;;;45.17;17.90;;;8.70;99.90;;;;;;4976414;28;20038;-53
2024/03/04 01:46:40;;;;;;;45.37;17.93;;;8.70;99.90;;;;;;4976405;28;20035;-52
2024/03/04 01:49:07;;;;;;;42.20;18.37;;;8.70;99.90;;;;;;4976357;28;20049;-54
2024/03/04 01:51:33;;;;;;;40.03;17.30;;;8.80;99.90;;;;;;4976256;28;20488;-52
2024/03/04 01:54:00;;;;;;;43.03;17.63;;;8.90;99.90;;;;;;4976433;28;20039;-52
2024/03/04 01:56:26;;;;;;;46.27;18.10;;;8.80;99.90;;;;;;4976421;28;20041;-53
2024/03/04 01:58:53;;;;;;;44.13;18.73;;;8.80;99.90;;;;;;4976502;28;20491;-52
2024/03/04 02:01:19;;;;;;;37.37;16.73;;;8.80;99.90;;;;;;4976331;28;20046;-53
2024/03/04 02:03:46;;;;;;;41.60;16.53;;;8.70;99.90;;;;;;4976442;28;20125;-53
2024/03/04 02:06:13;;;;;;;45.67;17.63;;;8.70;99.90;;;;;;4976516;28;20319;-55
2024/03/04 02:08:38;;;;;;;37.53;15.50;;;8.70;99.90;;;;;;4976541;28;20174;-54
2024/03/04 02:11:05;;;;;;;43.07;16.50;;;8.80;99.90;;;;;;4977165;28;20071;-53
2024/03/04 02:13:32;;;;;;;37.30;14.87;;;8.70;99.90;;;;;;4977175;28;20034;-54
2024/03/04 02:15:59;;;;;;;38.33;15.03;;;8.70;99.90;;;;;;4977050;28;20035;-55
2024/03/04 02:18:25;;;;;;;33.47;13.93;;;8.70;99.90;;;;;;4977198;28;20568;-55
2024/03/04 02:21:00;;;;;;;38.70;14.40;;;8.70;99.90;;;;;;4977294;28;20031;-55
2024/03/04 02:23:26;;;;;;;38.20;14.30;;;8.60;99.90;;;;;;4976499;28;20159;-53
2024/03/04 02:25:53;;;;;;;33.63;13.47;;;8.60;99.90;;;;;;4975892;28;20031;-56
2024/03/04 02:28:22;;;;;;;34.97;13.87;;;8.70;99.90;;;;;;4975570;28;20034;-56
2024/03/04 02:30:48;;;;;;;36.07;13.77;;;8.70;99.90;;;;;;4975593;28;20038;-56
2024/03/04 02:33:15;;;;;;;31.93;14.17;;;8.70;99.90;;;;;;4975404;28;20529;-55
2024/03/04 02:35:41;;;;;;;39.03;14.80;;;8.60;99.90;;;;;;4975443;28;20042;-56
2024/03/04 02:38:09;;;;;;;33.50;14.10;;;8.60;99.90;;;;;;4975407;28;20076;-56
2024/03/04 02:40:34;;;;;;;29.67;12.80;;;8.60;99.90;;;;;;4975473;28;20041;-56
2024/03/04 02:43:00;;;;;;;29.53;12.83;;;8.60;99.90;;;;;;4975209;28;20023;-56
2024/03/04 02:45:26;;;;;;;30.17;12.53;;;8.60;99.90;;;;;;4975112;28;20117;-56
2024/03/04 02:47:52;;;;;;;35.90;13.83;;;8.60;99.90;;;;;;4975422;28;20035;-55
2024/03/04 02:50:17;;;;;;;30.83;12.97;;;8.60;99.90;;;;;;4975245;28;20034;-56
2024/03/04 02:52:44;;;;;;;30.90;12.20;;;8.60;99.90;;;;;;4974854;28;20035;-55
2024/03/04 02:55:10;;;;;;;29.30;13.20;;;8.60;99.90;;;;;;4975244;28;20117;-55
2024/03/04 02:57:35;;;;;;;36.43;13.80;;;8.60;99.90;;;;;;4975265;28;20058;-54
2024/03/04 03:00:01;;;;;;;35.50;13.30;;;8.60;99.90;;;;;;4974960;28;20396;-56
2024/03/04 03:02:26;;;;;;;31.50;12.53;;;8.50;99.90;;;;;;4975054;28;20121;-55
2024/03/04 03:04:52;;;;;;;28.73;10.93;;;8.50;99.90;;;;;;4975323;28;20023;-56
2024/03/04 03:07:18;;;;;;;28.10;12.40;;;8.50;99.90;;;;;;4974989;28;20050;-54
2024/03/04 03:09:44;;;;;;;25.33;10.57;;;8.40;99.90;;;;;;4974888;28;20038;-55
2024/03/04 03:12:10;;;;;;;27.17;10.37;;;8.50;99.90;;;;;;4974659;28;20125;-53
2024/03/04 03:14:37;;;;;;;25.83;9.97;;;8.50;99.90;;;;;;4974815;28;20114;-51
2024/03/04 03:17:03;;;;;;;22.30;9.37;;;8.40;99.90;;;;;;4974826;28;20121;-53
2024/03/04 03:19:28;;;;;;;20.87;8.80;;;8.40;99.90;;;;;;4974631;28;20083;-55
2024/03/04 03:21:55;;;;;;;24.20;10.67;;;8.40;99.90;;;;;;4974499;28;20038;-53
2024/03/04 03:24:22;;;;;;;22.43;9.43;;;8.30;99.90;;;;;;4974752;28;20050;-55
2024/03/04 03:26:49;;;;;;;21.57;8.93;;;8.30;99.90;;;;;;4974809;28;20049;-53
2024/03/04 03:29:15;;;;;;;23.13;9.87;;;8.40;99.90;;;;;;4974530;28;20038;-56
2024/03/04 03:31:41;;;;;;;22.83;9.50;;;8.40;99.90;;;;;;4974344;28;20030;-57
2024/03/04 03:34:07;;;;;;;25.57;9.87;;;8.50;99.90;;;;;;4974492;28;20379;-56
2024/03/04 03:36:35;;;;;;;21.63;8.93;;;8.40;99.90;;;;;;4974325;28;20037;-56
2024/03/04 03:39:04;;;;;;;20.20;8.50;;;8.40;99.90;;;;;;4974289;28;20113;-55
2024/03/04 03:41:29;;;;;;;20.10;9.23;;;8.30;99.90;;;;;;4974424;28;20103;-55
2024/03/04 03:43:55;;;;;;;24.23;10.07;;;8.30;99.90;;;;;;4974238;28;20019;-55
2024/03/04 03:46:21;;;;;;;23.87;9.93;;;8.20;99.90;;;;;;4974271;28;20034;-53
2024/03/04 03:48:47;;;;;;;27.30;9.90;;;8.20;99.90;;;;;;4974192;28;20093;-54
2024/03/04 03:51:12;;;;;;;21.93;9.80;;;8.20;99.90;;;;;;4973909;28;20121;-55
2024/03/04 03:53:38;;;;;;;23.47;9.00;;;8.20;99.90;;;;;;4974204;28;20090;-53
2024/03/04 03:56:04;;;;;;;24.07;9.43;;;8.20;99.90;;;;;;4973993;28;20037;-56
2024/03/04 03:58:30;;;;;;;18.20;8.37;;;8.30;99.90;;;;;;4972739;28;20081;-54
2024/03/04 04:00:56;;;;;;;18.43;8.10;;;8.30;99.90;;;;;;4973707;28;20031;-54
2024/03/04 04:03:21;;;;;;;18.57;8.17;;;8.40;99.90;;;;;;4973360;28;20027;-56
2024/03/04 04:05:47;;;;;;;22.50;8.23;;;8.30;99.90;;;;;;4973755;28;20041;-52
2024/03/04 04:08:13;;;;;;;19.37;8.27;;;8.30;99.90;;;;;;4973822;28;20084;-55
2024/03/04 04:10:39;;;;;;;20.23;7.83;;;8.20;99.90;;;;;;4973752;28;20042;-54
2024/03/04 04:13:05;;;;;;;18.17;7.57;;;8.20;99.90;;;;;;4972521;28;20034;-54
2024/03/04 04:15:30;;;;;;;22.43;9.00;;;8.20;99.90;;;;;;4973683;28;20501;-54
2024/03/04 04:17:57;;;;;;;17.33;7.93;;;8.10;99.90;;;;;;4972398;28;20121;-54
2024/03/04 04:20:27;;;;;;;19.73;8.30;;;8.10;99.90;;;;;;4973389;28;20038;-55
2024/03/04 04:22:52;;;;;;;18.87;7.57;;;8.10;99.90;;;;;;4987975;28;20373;-56
2024/03/04 04:25:18;;;;;;;17.37;7.57;;;8.10;99.90;;;;;;4973476;28;20026;-53
2024/03/04 04:27:45;;;;;;;20.07;6.90;;;8.10;99.90;;;;;;4973673;28;20031;-55
2024/03/04 04:30:11;;;;;;;18.50;7.67;;;8.20;99.90;;;;;;4973440;28;20042;-55
2024/03/04 04:32:37;;;;;;;19.07;6.67;;;8.10;99.90;;;;;;4973333;28;20047;-56
2024/03/04 04:35:04;;;;;;;18.40;7.37;;;8.20;99.90;;;;;;4973330;28;20043;-56
2024/03/04 04:37:30;;;;;;;15.60;6.90;;;8.20;99.90;;;;;;4973431;28;20054;-55
2024/03/04 04:39:57;;;;;;;15.07;6.97;;;8.20;99.90;;;;;;4973136;28;20035;-54
2024/03/04 04:42:23;;;;;;;22.57;6.73;;;8.20;99.90;;;;;;4971987;28;20030;-56
2024/03/04 04:44:49;;;;;;;15.87;7.17;;;8.10;99.90;;;;;;4973237;28;20399;-55
2024/03/04 04:47:14;;;;;;;17.27;6.60;;;8.10;99.90;;;;;;5004171;23;20051;-50
2024/03/04 04:49:40;;;;;;;17.07;7.00;;;8.10;99.90;;;;;;4992546;28;20032;-52
2024/03/04 04:52:06;;;;;;;17.43;6.47;;;8.10;99.90;;;;;;4992442;28;20373;-53
2024/03/04 04:54:33;;;;;;;19.33;7.77;;;8.10;99.90;;;;;;4992584;28;20053;-54
2024/03/04 04:56:59;;;;;;;18.10;7.70;;;8.10;99.90;;;;;;4992634;28;20113;-55
2024/03/04 04:59:24;;;;;;;17.00;6.60;;;8.20;99.90;;;;;;4992481;28;20100;-53
2024/03/04 05:01:50;;;;;;;20.40;7.43;;;8.20;99.90;;;;;;4992319;28;20041;-54
2024/03/04 05:04:18;;;;;;;21.57;7.13;;;8.20;99.90;;;;;;4992285;28;20084;-50
2024/03/04 05:06:44;;;;;;;22.20;7.37;;;8.20;99.90;;;;;;4992419;28;20045;-49
2024/03/04 05:09:10;;;;;;;21.80;7.43;;;8.10;99.90;;;;;;4992289;28;20042;-51
2024/03/04 05:11:36;;;;;;;18.80;7.00;;;8.10;99.90;;;;;;4992146;28;20546;-50
2024/03/04 05:14:02;;;;;;;13.67;5.57;;;8.10;99.90;;;;;;4992302;28;20026;-53
2024/03/04 05:16:29;;;;;;;14.57;5.30;;;8.10;99.90;;;;;;4995210;28;20042;-51
2024/03/04 05:18:56;;;;;;;16.27;6.47;;;8.10;99.90;;;;;;4996585;28;20037;-50
2024/03/04 05:21:22;;;;;;;17.30;5.40;;;8.20;99.90;;;;;;4996057;28;20034;-55
2024/03/04 05:23:48;;;;;;;19.17;5.87;;;8.20;99.90;;;;;;4996276;28;20054;-50
2024/03/04 05:26:14;;;;;;;17.10;5.87;;;8.10;99.90;;;;;;4996189;28;20057;-52
2024/03/04 05:28:39;;;;;;;15.40;5.63;;;8.10;99.90;;;;;;4996151;28;20033;-52
2024/03/04 05:31:05;;;;;;;18.63;6.07;;;8.10;99.90;;;;;;4995811;28;20030;-55
2024/03/04 05:33:30;;;;;;;15.23;5.90;;;8.10;99.90;;;;;;4996150;28;20387;-51
2024/03/04 05:35:56;;;;;;;18.10;5.67;;;8.10;99.90;;;;;;4996061;28;20164;-55
2024/03/04 05:38:23;;;;;;;13.30;5.37;;;8.20;99.90;;;;;;4995908;28;20037;-52
2024/03/04 05:40:48;;;;;;;14.13;5.97;;;8.10;99.90;;;;;;4995785;28;20042;-53
2024/03/04 05:43:14;;;;;;;16.27;5.67;;;8.20;99.90;;;;;;4995733;28;20088;-51
2024/03/04 05:45:40;;;;;;;15.80;5.33;;;8.20;99.90;;;;;;4995593;28;20034;-52
2024/03/04 05:48:06;;;;;;;11.13;5.47;;;8.20;99.90;;;;;;4995805;28;20061;-52
2024/03/04 05:50:32;;;;;;;16.30;6.37;;;8.20;99.90;;;;;;4995724;28;20089;-50
2024/03/04 05:52:57;;;;;;;15.03;5.80;;;8.30;99.90;;;;;;4995585;28;20239;-49
2024/03/04 05:55:23;;;;;;;15.23;5.43;;;8.30;99.90;;;;;;4995696;28;20091;-50
2024/03/04 05:57:49;;;;;;;15.43;6.20;;;8.20;99.90;;;;;;4995679;28;20042;-50
2024/03/04 06:00:15;;;;;;;12.87;5.47;;;8.20;99.90;;;;;;4995421;28;20041;-51
2024/03/04 06:02:44;;;;;;;14.53;5.53;;;8.20;99.90;;;;;;4995893;28;20027;-52
2024/03/04 06:05:13;;;;;;;16.90;5.53;;;8.30;99.90;;;;;;4995550;28;20038;-53
2024/03/04 06:07:42;;;;;;;18.48;5.93;;;8.20;99.90;;;;;;4995520;28;20057;-50
2024/03/04 06:10:08;;;;;;;;;;;8.30;99.90;;;;;;4995868;28;20038;-50
2024/03/04 06:12:34;;;;;;;12.80;5.57;;;8.20;99.90;;;;;;4994205;28;19917;-50
2024/03/04 06:15:00;;;;;;;18.30;6.10;;;8.20;99.90;;;;;;4995265;28;20030;-54
2024/03/04 06:17:29;;;;;;;15.67;5.77;;;8.10;99.90;;;;;;4995239;28;20506;-49
2024/03/04 06:19:54;;;;;;;12.68;5.38;;;8.10;99.90;;;;;;4995074;28;20423;-50
2024/03/04 06:22:20;;;;;;;17.43;6.30;;;8.10;99.90;;;;;;4994970;28;20035;-50
2024/03/04 06:24:46;;;;;;;18.47;6.17;;;8.00;99.90;;;;;;4995089;28;20050;-50
2024/03/04 06:27:11;;;;;;;15.53;6.10;;;8.10;99.90;;;;;;4994620;28;20022;-50
2024/03/04 06:29:37;;;;;;;14.97;5.80;;;8.10;99.90;;;;;;4994909;28;20122;-49
2024/03/04 06:32:03;;;;;;;18.37;5.90;;;8.10;99.90;;;;;;4995014;28;20031;-51
2024/03/04 06:34:30;;;;;;;15.80;5.60;;;8.10;99.90;;;;;;4994925;28;20037;-53
2024/03/04 06:36:57;;;;;;;15.30;5.77;;;8.20;99.90;;;;;;4994893;28;20035;-51
2024/03/04 06:39:23;;;;;;;21.07;6.33;;;8.30;99.90;;;;;;4994626;28;20045;-53
2024/03/04 06:41:49;;;;;;;15.60;6.07;;;8.20;99.90;;;;;;4994735;28;20117;-49
2024/03/04 06:44:24;;;;;;;18.00;6.37;;;8.20;99.90;;;;;;4994722;28;20045;-52
2024/03/04 06:46:53;;;;;;;17.37;6.33;;;8.20;99.90;;;;;;4994793;28;20096;-53
2024/03/04 06:49:18;;;;;;;17.52;6.38;;;8.20;99.90;;;;;;4994685;28;20431;-50
2024/03/04 06:51:44;;;;;;;20.23;6.53;;;8.20;99.90;;;;;;4994587;28;20066;-51
2024/03/04 06:54:10;;;;;;;19.67;7.47;;;8.30;99.90;;;;;;4993407;28;20027;-52
2024/03/04 06:56:36;;;;;;;20.30;7.17;;;8.30;99.90;;;;;;4994469;28;20038;-53
2024/03/04 06:59:02;;;;;;;19.70;8.10;;;8.30;99.90;;;;;;4994496;28;20038;-54
2024/03/04 07:01:28;;;;;;;20.43;7.93;;;8.30;99.90;;;;;;4994301;28;20026;-51
2024/03/04 07:03:54;;;;;;;22.90;8.17;;;8.30;99.90;;;;;;4994409;28;20490;-55
2024/03/04 07:06:21;;;;;;;22.93;7.60;;;8.30;99.90;;;;;;4994222;28;20039;-51
2024/03/04 07:08:46;;;;;;;20.47;8.37;;;8.30;99.90;;;;;;4994355;28;20042;-49
2024/03/04 07:11:13;;;;;;;23.87;9.40;;;8.30;99.90;;;;;;4994229;28;20023;-53
2024/03/04 07:13:39;;;;;;;20.13;8.77;;;8.40;99.90;;;;;;4994281;28;20165;-52
2024/03/04 07:16:07;;;;;;;25.97;8.53;;;8.40;99.90;;;;;;4994084;28;20105;-49
2024/03/04 07:18:34;;;;;;;27.75;10.05;;;8.40;99.90;;;;;;4994349;28;20360;-52
2024/03/04 07:21:00;;;;;;;25.87;9.73;;;8.40;99.90;;;;;;4993825;28;20438;-53
2024/03/04 07:23:25;;;;;;;24.70;10.13;;;8.30;99.90;;;;;;4992821;28;20026;-50
2024/03/04 07:25:51;;;;;;;27.53;9.57;;;8.30;99.90;;;;;;4993856;28;20034;-54
2024/03/04 07:28:18;;;;;;;21.30;9.37;;;8.30;99.90;;;;;;4993973;28;20084;-48
2024/03/04 07:30:44;;;;;;;30.90;10.27;;;8.40;99.90;;;;;;4993874;28;20483;-52
2024/03/04 07:33:11;;;;;;;27.27;10.27;;;8.30;99.90;;;;;;4993742;28;20038;-52
2024/03/04 07:35:37;;;;;;;29.27;11.43;;;8.30;99.90;;;;;;4993766;28;20049;-49
2024/03/04 07:38:04;;;;;;;29.23;10.97;;;8.30;99.90;;;;;;4992962;28;20129;-53
2024/03/04 07:40:30;;;;;;;25.70;8.87;;;8.30;99.90;;;;;;4993649;28;20026;-52
2024/03/04 07:42:56;;;;;;;24.63;9.37;;;8.30;99.90;;;;;;4993790;28;20036;-48
2024/03/04 07:45:22;;;;;;;22.93;9.07;;;8.30;99.90;;;;;;4993400;28;20109;-49
2024/03/04 07:47:47;;;;;;;25.87;10.30;;;8.30;99.90;;;;;;4993538;28;20030;-51
2024/03/04 07:50:13;;;;;;;24.57;10.40;;;8.40;99.90;;;;;;4993400;28;20080;-52
2024/03/04 07:52:38;;;;;;;26.13;10.00;;;8.30;99.90;;;;;;4993300;28;20042;-49
2024/03/04 07:55:07;;;;;;;24.00;10.47;;;8.30;99.90;;;;;;4993554;28;20038;-51
2024/03/04 07:57:32;;;;;;;24.07;9.57;;;8.30;99.90;;;;;;4993437;28;20087;-50
2024/03/04 07:59:58;;;;;;;21.87;9.27;;;8.30;99.90;;;;;;4993167;28;20473;-51
2024/03/04 08:02:24;;;;;;;23.67;10.40;;;8.30;99.90;;;;;;4993335;28;20058;-51
2024/03/04 08:04:49;;;;;;;24.67;9.63;;;8.40;99.90;;;;;;4993268;28;20029;-50
2024/03/04 08:07:16;;;;;;;23.80;9.87;;;8.40;99.90;;;;;;4993231;28;20034;-48
2024/03/04 08:09:41;;;;;;;24.73;10.47;;;8.50;99.90;;;;;;4993131;28;20026;-48
2024/03/04 08:12:08;;;;;;;28.63;10.97;;;8.60;99.90;;;;;;4993096;28;20033;-49
2024/03/04 08:14:33;;;;;;;26.63;10.30;;;8.60;99.90;;;;;;4993100;28;20124;-50
2024/03/04 08:16:59;;;;;;;20.07;9.87;;;8.60;99.90;;;;;;4993132;28;20054;-49
2024/03/04 08:19:25;;;;;;;23.13;10.90;;;8.60;99.90;;;;;;4992723;28;20069;-51
2024/03/04 08:21:50;;;;;;;21.30;9.23;;;8.60;99.90;;;;;;4992849;28;20054;-51
2024/03/04 08:24:16;;;;;;;22.73;8.80;;;8.60;99.90;;;;;;4993129;28;20384;-50
2024/03/04 08:26:42;;;;;;;21.83;9.70;;;8.60;99.90;;;;;;4992846;28;20041;-48
2024/03/04 08:29:07;;;;;;;20.27;9.37;;;8.60;99.90;;;;;;4992848;28;20105;-52
2024/03/04 08:31:36;;;;;;;22.60;9.63;;;8.60;99.90;;;;;;4992684;28;20050;-51
2024/03/04 08:34:04;;;;;;;24.05;10.93;;;8.60;99.90;;;;;;4992756;28;20034;-51
2024/03/04 08:36:30;;;;;;;25.47;11.13;;;8.60;99.90;;;;;;4992632;28;20038;-52
2024/03/04 08:38:56;;;;;;;22.97;10.00;;;8.50;99.90;;;;;;4992649;28;20037;-52
2024/03/04 08:41:24;;;;;;;25.80;10.40;;;8.50;99.90;;;;;;4992435;28;20027;-53
2024/03/04 08:43:50;;;;;;;25.60;10.37;;;8.50;99.90;;;;;;4992595;28;20034;-53
2024/03/04 08:46:16;;;;;;;27.10;9.37;;;8.60;99.90;;;;;;4992473;28;20034;-50
2024/03/04 08:48:42;;;;;;;24.83;9.67;;;8.60;99.90;;;;;;4992394;28;20030;-52
2024/03/04 08:51:08;;;;;;;26.57;9.50;;;8.60;99.90;;;;;;4992134;28;20026;-53
2024/03/04 08:53:34;;;;;;;27.03;10.97;;;8.60;99.90;;;;;;4992543;28;20034;-48
2024/03/04 08:56:00;;;;;;;26.97;10.07;;;8.60;99.90;;;;;;4992590;28;20096;-53
2024/03/04 08:58:26;;;;;;;25.33;10.73;;;8.60;99.90;;;;;;4992402;28;20061;-54
2024/03/04 09:00:51;;;;;;;21.00;9.17;;;8.60;99.90;;;;;;4992307;28;20089;-53
2024/03/04 09:03:17;;;;;;;23.93;9.90;;;8.60;99.90;;;;;;4992766;28;20050;-51
2024/03/04 09:05:44;;;;;;;29.27;10.40;;;8.60;99.90;;;;;;4992171;28;20475;-53
2024/03/04 09:08:11;;;;;;;26.13;11.13;;;8.60;99.90;;;;;;4992331;28;20057;-54
2024/03/04 09:10:38;;;;;;;25.93;8.53;;;8.70;99.90;;;;;;4992237;28;20038;-50
2024/03/04 09:13:04;;;;;;;23.30;8.23;;;8.70;99.90;;;;;;4992229;28;20053;-53
2024/03/04 09:15:29;;;;;;;22.63;8.87;;;8.90;99.90;;;;;;4992153;28;20499;-52
2024/03/04 09:17:55;;;;;;;24.47;9.07;;;8.80;99.90;;;;;;4992234;28;20022;-51
2024/03/04 09:20:21;;;;;;;25.07;9.23;;;8.80;99.90;;;;;;4992045;28;20522;-53
2024/03/04 09:22:47;;;;;;;28.53;10.70;;;8.80;99.90;;;;;;4992126;28;20058;-53
2024/03/04 09:25:13;;;;;;;33.73;11.37;;;8.80;99.90;;;;;;4991998;28;20030;-53
2024/03/04 09:27:42;;;;;;;31.07;11.37;;;8.80;99.90;;;;;;4992201;28;20096;-49
2024/03/04 09:30:08;;;;;;;33.57;12.13;;;8.90;99.90;;;;;;4992255;28;20030;-54
2024/03/04 09:32:34;;;;;;;34.67;13.50;;;8.90;99.90;;;;;;4992033;28;20403;-54
2024/03/04 09:35:00;;;;;;;37.07;13.37;;;8.90;99.90;;;;;;4991999;28;20058;-53
2024/03/04 09:37:26;;;;;;;32.67;12.80;;;8.90;99.90;;;;;;4992140;28;20066;-51
2024/03/04 09:39:52;;;;;;;37.50;12.93;;;8.80;99.90;;;;;;4991858;28;20085;-54
2024/03/04 09:42:18;;;;;;;36.23;13.67;;;8.80;99.90;;;;;;4991943;28;20102;-52
2024/03/04 09:44:45;;;;;;;25.97;10.63;;;8.80;99.90;;;;;;4991998;28;20105;-54
2024/03/04 09:47:12;;;;;;;32.80;11.00;;;8.80;99.90;;;;;;4991966;28;20030;-50
2024/03/04 09:49:39;;;;;;;28.00;10.63;;;8.80;99.90;;;;;;4991932;28;20085;-55
2024/03/04 09:52:07;;;;;;;29.20;9.93;;;8.80;99.90;;;;;;4991892;28;20037;-53
2024/03/04 09:54:36;;;;;;;30.20;10.73;;;8.80;99.90;;;;;;4991967;28;20038;-54
2024/03/04 09:57:02;;;;;;;27.38;10.32;;;8.90;99.90;;;;;;4992233;28;20030;-50
2024/03/04 09:59:33;;;;;;;25.30;10.47;;;8.80;99.90;;;;;;4991822;28;20100;-52
2024/03/04 10:02:01;;;;;;;25.47;8.97;;;8.80;99.90;;;;;;4993578;28;20031;-53
2024/03/04 10:04:28;;;;;;;27.80;9.52;;;8.70;99.90;;;;;;4995475;28;20483;-52
2024/03/04 10:06:54;;;;;;;23.80;9.33;;;8.70;99.90;;;;;;4995516;28;20033;-51
2024/03/04 10:09:20;;;;;;;30.53;10.53;;;8.70;99.90;;;;;;4993995;28;20035;-52
2024/03/04 10:11:45;;;;;;;24.93;10.30;;;8.80;99.90;;;;;;4995291;28;20034;-51
2024/03/04 10:14:11;;;;;;;25.33;10.30;;;8.70;99.90;;;;;;4995429;28;20416;-52
2024/03/04 10:16:37;;;;;;;23.77;8.43;;;8.70;99.90;;;;;;4995110;28;20026;-51
2024/03/04 10:19:04;;;;;;;24.50;8.67;;;8.80;99.90;;;;;;4995160;28;20112;-53
2024/03/04 10:21:31;;;;;;;25.50;10.90;;;8.80;99.90;;;;;;4994964;28;20022;-53
2024/03/04 10:23:58;;;;;;;29.90;10.10;;;8.80;99.90;;;;;;4995296;28;20535;-54
2024/03/04 10:26:24;;;;;;;23.50;9.07;;;8.80;99.90;;;;;;4995190;28;20057;-53
2024/03/04 10:28:51;;;;;;;24.47;8.97;;;8.70;99.90;;;;;;4995091;28;20026;-53
2024/03/04 10:31:18;;;;;;;24.53;9.50;;;8.80;99.90;;;;;;4994745;28;20117;-54
2024/03/04 10:33:44;;;;;;;23.37;8.77;;;8.80;99.90;;;;;;4995064;28;20026;-52
2024/03/04 10:36:14;;;;;;;20.43;7.97;;;8.90;99.90;;;;;;4994991;28;20049;-52
2024/03/04 10:38:43;;;;;;;24.73;9.13;;;8.80;99.90;;;;;;4994974;28;20058;-55
2024/03/04 10:41:19;;;;;;;31.17;10.13;;;8.80;99.90;;;;;;4994826;28;20121;-53
2024/03/04 10:43:46;;;;;;;29.53;12.00;;;8.70;99.90;;;;;;4994884;28;20030;-51
2024/03/04 10:46:14;;;;;;;25.07;10.20;;;8.70;99.90;;;;;;4994571;28;20046;-53
2024/03/04 10:48:41;;;;;;;21.80;8.37;;;8.70;99.90;;;;;;4994788;28;20030;-53
2024/03/04 10:51:07;;;;;;;20.60;8.73;;;8.70;99.90;;;;;;4994442;28;20037;-52
2024/03/04 10:53:33;;;;;;;25.73;9.37;;;8.70;99.90;;;;;;4994583;28;20026;-52
2024/03/04 10:56:06;;;;;;;26.13;9.67;;;8.70;99.90;;;;;;4994678;28;20031;-53
2024/03/04 10:58:32;;;;;;;20.53;9.40;;;8.70;99.90;;;;;;4994565;28;20058;-54
2024/03/04 11:01:00;;;;;;;24.03;8.50;;;8.70;99.90;;;;;;4994272;28;20038;-53
2024/03/04 11:03:28;;;;;;;23.20;9.13;;;8.60;99.90;;;;;;4994876;28;20061;-51
2024/03/04 11:05:56;;;;;;;30.02;11.10;;;8.70;99.90;;;;;;4994387;28;20027;-50
2024/03/04 11:08:36;;;;;;;29.07;11.77;;;8.70;99.90;;;;;;4994348;28;20118;-52
2024/03/04 11:11:20;;;;;;;29.60;10.70;;;8.70;99.90;;;;;;4994219;28;20085;-51
2024/03/04 11:13:58;;;;;;;22.90;10.47;;;8.70;99.90;;;;;;4994226;28;20042;-51
2024/03/04 11:16:44;;;;;;;19.88;8.50;;;8.70;99.90;;;;;;4994223;28;20034;-51
2024/03/04 11:19:32;;;;;;;24.90;8.13;;;8.70;99.90;;;;;;4994108;28;20037;-54
2024/03/04 11:21:58;;;;;;;23.07;8.80;;;8.60;99.90;;;;;;4994117;28;20031;-55
2024/03/04 11:24:25;;;;;;;18.10;8.20;;;8.60;99.90;;;;;;4994010;28;20038;-50
2024/03/04 11:26:52;;;;;;;17.73;8.07;;;8.60;99.90;;;;;;4994062;28;20112;-52
2024/03/04 11:29:19;;;;;;;18.70;7.77;;;8.70;99.90;;;;;;4993916;28;20514;-52
2024/03/04 11:32:05;;;;;;;20.20;8.37;;;8.70;99.90;;;;;;4993904;28;20026;-54
2024/03/04 11:35:06;;;;;;;21.03;7.17;;;8.70;99.90;;;;;;4993865;28;20089;-54
2024/03/04 11:37:47;;;;;;;16.73;6.73;;;8.70;99.90;;;;;;4993925;28;20030;-55
2024/03/04 11:40:13;;;;;;;17.73;7.20;;;8.80;99.90;;;;;;4993731;28;20516;-54
2024/03/04 11:42:38;;;;;;;19.03;7.30;;;8.80;99.90;;;;;;4993600;28;20096;-54
2024/03/04 11:45:08;;;;;;;20.67;7.10;;;8.90;99.90;;;;;;4992350;28;20026;-53
2024/03/04 11:47:34;;;;;;;14.77;6.53;;;8.90;99.90;;;;;;4993434;28;20049;-54
2024/03/04 11:50:00;;;;;;;12.67;6.80;;;8.90;99.90;;;;;;4994106;28;20026;-55
2024/03/04 11:52:26;;;;;;;15.63;6.37;;;9.00;99.90;;;;;;4993424;28;20038;-52
2024/03/04 11:54:55;;;;;;;14.77;6.67;;;9.10;99.90;;;;;;4993461;28;20030;-51
2024/03/04 11:57:20;;;;;;;16.92;8.15;;;9.10;99.90;;;;;;4993785;28;20030;-54
2024/03/04 12:00:00;;;;;;;23.90;9.23;;;9.10;99.90;;;;;;4993273;28;20038;-53
2024/03/04 12:02:26;;;;;;;24.30;9.83;;;9.10;99.90;;;;;;4993308;28;20034;-52
2024/03/04 12:04:55;;;;;;;24.37;10.20;;;9.30;99.90;;;;;;4993196;28;20030;-52
2024/03/04 12:07:21;;;;;;;29.08;10.93;;;9.20;99.90;;;;;;4993218;28;20498;-54
2024/03/04 12:09:47;;;;;;;23.37;10.60;;;9.30;99.90;;;;;;4993188;28;20488;-52
2024/03/04 12:12:14;;;;;;;16.90;7.10;;;9.20;99.90;;;;;;4993053;28;20079;-53
2024/03/04 12:14:42;;;;;;;13.43;6.20;;;9.40;99.90;;;;;;4993049;28;20034;-53
2024/03/04 12:17:07;;;;;;;11.20;5.80;;;9.40;99.90;;;;;;4993180;28;20173;-54
2024/03/04 12:19:33;;;;;;;11.13;4.93;;;9.30;99.90;;;;;;4992871;28;20132;-54
2024/03/04 12:22:00;;;;;;;13.90;5.70;;;9.40;99.90;;;;;;4992843;28;20033;-52
2024/03/04 12:24:26;;;;;;;12.43;5.63;;;9.40;99.90;;;;;;4992533;28;20053;-53
2024/03/04 12:26:55;;;;;;;19.23;7.03;;;9.40;99.90;;;;;;4993053;28;20314;-53
2024/03/04 12:29:25;;;;;;;11.17;5.40;;;9.40;99.90;;;;;;4992725;28;20371;-53
2024/03/04 12:31:53;;;;;;;11.57;5.40;;;9.30;99.90;;;;;;4992750;28;20034;-53
2024/03/04 12:34:20;;;;;;;14.60;5.97;;;9.40;99.90;;;;;;4992732;28;20045;-51
2024/03/04 12:36:50;;;;;;;20.67;9.27;;;9.40;99.90;;;;;;4992754;28;20034;-50
2024/03/04 12:39:19;;;;;;;;;;;9.30;99.90;;;;;;4993167;28;20038;-50
2024/03/04 12:41:45;;;;;;;25.25;10.27;;;9.30;99.90;;;;;;4992484;28;19913;-53